Overview Statistics Trail Chart Weather Telemetry Raw packets
 

This is the latest recevied weather packets stored in our database for station/object K0SNA. If no packets are shown the sender has not sent any weather packets the latest 10 day(s).

<< 104 105 106 107 108 109 110 >>
Time Temp. Humidity Pressure Rain* Wind** Luminosity Snow
1787778824 26.11° C 55% 1015.5 hPa 0 mm - 171 W/m² -
1787778520 26.67° C 55% 1015.2 hPa 0 mm - 130 W/m² -
1787778215 26.11° C 56% 1015.4 hPa 0 mm - 182 W/m² -
1787777910 26.67° C 55% 1015.5 hPa 0 mm - 146 W/m² -
1787777606 26.11° C 57% 1015.5 hPa 0 mm - 356 W/m² -
1787777301 26.11° C 56% 1015.5 hPa 0 mm - 509 W/m² -
1787777001 25.56° C 57% 1015.5 hPa 0 mm - 527 W/m² -
1787776700 25.56° C 59% 1015.5 hPa 0 mm - 523 W/m² -
1787776399 25.56° C 57% 1015.5 hPa 0 mm - 151 W/m² -
1787776097 25° C 58% 1015.4 hPa 0 mm - 166 W/m² -
1787775792 25.56° C 57% 1015.2 hPa 0 mm - 178 W/m² -
1787775491 26.11° C 57% 1015.4 hPa 0 mm - 367 W/m² -
1787775190 25.56° C 59% 1015.6 hPa 0 mm - 221 W/m² -
1787774890 26.11° C 57% 1015.3 hPa 0 mm - 189 W/m² -
1787774589 26.67° C 55% 1015.5 hPa 0 mm - 480 W/m² -
1787774283 26.11° C 56% 1015.5 hPa 0 mm - 630 W/m² -
1787773982 25.56° C 58% 1015.5 hPa 0 mm - 325 W/m² -
1787773681 25.56° C 58% 1015.6 hPa 0 mm - 253 W/m² -
1787773377 26.11° C 55% 1015.3 hPa 0 mm - 199 W/m² -
1787773072 25.56° C 55% 1015.4 hPa 0 mm - 512 W/m² -
1787772768 25.56° C 56% 1015.4 hPa 0 mm - 706 W/m² -
1787772466 26.11° C 57% 1015.3 hPa 0 mm - 333 W/m² -
1787772160 25.56° C 58% 1015.6 hPa 0 mm - 423 W/m² -
1787771859 25.56° C 58% 1015.5 hPa 0 mm - 245 W/m² -
1787771559 26.11° C 56% 1015.5 hPa 0 mm - 293 W/m² -

* Rain latest hour (hover to see other rain measurements)
** Current wind speed in m/s (hover to see current wind gust speed)